Time;durP1;ratioP1;P1;durP2;ratioP2;P2;SDS_P1;SDS_P2;PMS_P1;PMS_P2;Temp;Humidity;BMP_temperature;BMP_pressure;BME280_temperature;BME280_humidity;BME280_pressure;Samples;Min_cycle;Max_cycle;Signal;HPM_P1;HPM_P2
2022/07/23 00:00:16;;;;;;;3.13;1.65;;;15.00;99.90;;;;;;5073480;28;20445;-75
2022/07/23 00:02:42;;;;;;;4.18;1.58;;;15.00;99.90;;;;;;5073430;28;20052;-75
2022/07/23 00:05:09;;;;;;;5.15;1.83;;;14.90;99.90;;;;;;5056393;28;20404;-75
2022/07/23 00:07:34;;;;;;;4.53;1.98;;;14.90;99.90;;;;;;5073247;28;20535;-75
2022/07/23 00:10:00;;;;;;;3.25;1.90;;;14.90;99.90;;;;;;5072894;28;20048;-75
2022/07/23 00:12:26;;;;;;;4.50;2.20;;;14.90;99.90;;;;;;5073187;28;20044;-75
2022/07/23 00:14:51;;;;;;;4.38;1.80;;;14.90;99.90;;;;;;5073067;28;20455;-75
2022/07/23 00:17:17;;;;;;;2.97;2.05;;;14.80;99.90;;;;;;5072797;28;20390;-75
2022/07/23 00:19:43;;;;;;;5.40;1.85;;;14.80;99.90;;;;;;5056093;28;20036;-75
2022/07/23 00:22:08;;;;;;;3.45;1.63;;;14.80;99.90;;;;;;5073034;28;20054;-75
2022/07/23 00:24:34;;;;;;;4.13;1.80;;;14.80;99.90;;;;;;5056039;28;20447;-75
2022/07/23 00:26:59;;;;;;;7.70;2.45;;;14.80;99.90;;;;;;5056025;28;20036;-75
2022/07/23 00:29:25;;;;;;;7.40;2.63;;;14.70;99.90;;;;;;5072604;28;20385;-75
2022/07/23 00:31:50;;;;;;;4.32;2.22;;;14.70;99.90;;;;;;5055837;28;20070;-75
2022/07/23 00:34:16;;;;;;;3.17;2.10;;;14.70;99.90;;;;;;5055903;28;20043;-75
2022/07/23 00:36:42;;;;;;;5.22;2.40;;;14.60;99.90;;;;;;5055826;28;20170;-75
2022/07/23 00:39:07;;;;;;;3.47;1.95;;;14.50;99.90;;;;;;5072449;28;20170;-75
2022/07/23 00:41:33;;;;;;;6.38;2.67;;;14.50;99.90;;;;;;5072381;28;20047;-75
2022/07/23 00:44:20;;;;;;;3.50;2.08;;;14.50;99.90;;;;;;5071540;28;20047;-75
2022/07/23 00:46:53;;;;;;;4.32;2.53;;;14.50;99.90;;;;;;5072312;28;20040;-75
2022/07/23 00:49:20;;;;;;;5.85;2.70;;;14.40;99.90;;;;;;5055677;28;20036;-75
2022/07/23 00:51:47;;;;;;;4.45;2.55;;;14.30;99.90;;;;;;5072153;28;20519;-75
2022/07/23 00:54:13;;;;;;;3.75;2.22;;;14.30;99.90;;;;;;5072110;28;20058;-75
2022/07/23 00:56:40;;;;;;;4.93;2.00;;;14.30;99.90;;;;;;5072177;28;20117;-75
2022/07/23 00:59:07;;;;;;;7.30;2.70;;;14.30;99.90;;;;;;5072371;28;20147;-75
2022/07/23 01:01:32;;;;;;;4.10;2.70;;;14.20;99.90;;;;;;5055462;28;20040;-75
2022/07/23 01:03:58;;;;;;;5.38;2.65;;;14.20;99.90;;;;;;5072013;28;20037;-75
2022/07/23 01:06:24;;;;;;;2.25;1.80;;;14.20;99.90;;;;;;5072011;28;20036;-75
2022/07/23 01:08:49;;;;;;;5.88;2.33;;;14.20;99.90;;;;;;5072294;28;20131;-75
2022/07/23 01:11:17;;;;;;;3.97;2.83;;;14.10;99.90;;;;;;5071848;28;20082;-75
2022/07/23 01:13:43;;;;;;;6.05;3.25;;;14.10;99.90;;;;;;5071839;28;20036;-74
2022/07/23 01:16:09;;;;;;;5.75;3.15;;;14.10;99.90;;;;;;5055167;28;20036;-75
2022/07/23 01:18:34;;;;;;;4.80;2.75;;;14.00;99.90;;;;;;5055353;28;20050;-75
2022/07/23 01:21:00;;;;;;;5.15;2.72;;;14.00;99.90;;;;;;5071889;28;20090;-75
2022/07/23 01:23:25;;;;;;;5.03;2.70;;;14.00;99.90;;;;;;5072000;28;20040;-75
2022/07/23 01:25:55;;;;;;;5.13;2.80;;;14.00;99.90;;;;;;5055148;28;20477;-75
2022/07/23 01:28:21;;;;;;;3.58;2.60;;;14.00;99.90;;;;;;5071722;28;20040;-75
2022/07/23 01:30:47;;;;;;;8.90;3.00;;;13.90;99.90;;;;;;5055135;28;20036;-75
2022/07/23 01:33:14;;;;;;;5.65;2.72;;;14.00;99.90;;;;;;5071548;28;20442;-75
2022/07/23 01:35:39;;;;;;;4.43;2.50;;;13.90;99.90;;;;;;5055208;28;20041;-75
2022/07/23 01:38:05;;;;;;;3.42;1.60;;;13.90;99.90;;;;;;5055237;28;20040;-75
2022/07/23 01:40:31;;;;;;;4.45;1.30;;;13.80;99.90;;;;;;5055244;28;20041;-75
2022/07/23 01:42:56;;;;;;;2.65;2.13;;;13.80;99.90;;;;;;5071623;28;20558;-75
2022/07/23 01:45:22;;;;;;;3.05;2.10;;;13.80;99.90;;;;;;5071532;28;20044;-75
2022/07/23 01:47:48;;;;;;;3.53;2.30;;;13.80;99.90;;;;;;5071815;28;20411;-75
2022/07/23 01:50:14;;;;;;;3.10;2.28;;;13.70;99.90;;;;;;5071509;28;20090;-75
2022/07/23 01:52:39;;;;;;;4.80;2.90;;;13.70;99.90;;;;;;5071546;28;20029;-75
2022/07/23 01:55:06;;;;;;;7.22;2.65;;;13.70;99.90;;;;;;5055240;28;20106;-75
2022/07/23 01:57:32;;;;;;;5.15;3.00;;;13.70;99.90;;;;;;5059038;28;20068;-75
2022/07/23 01:59:57;;;;;;;4.03;2.75;;;13.70;99.90;;;;;;5075545;28;20068;-75
2022/07/23 02:02:23;;;;;;;3.78;2.95;;;13.70;99.90;;;;;;5075435;28;20028;-75
2022/07/23 02:04:49;;;;;;;5.47;3.00;;;13.70;99.90;;;;;;5075622;28;20035;-75
2022/07/23 02:07:14;;;;;;;4.57;2.90;;;13.60;99.90;;;;;;5075601;28;20484;-75
2022/07/23 02:09:40;;;;;;;4.90;2.17;;;13.60;99.90;;;;;;5075358;28;20413;-75
2022/07/23 02:12:06;;;;;;;2.70;2.00;;;13.60;99.90;;;;;;5075175;28;20128;-75
2022/07/23 02:14:31;;;;;;;2.53;1.33;;;13.60;99.90;;;;;;5075122;28;20040;-75
2022/07/23 02:16:57;;;;;;;1.48;1.00;;;13.50;99.90;;;;;;5075439;28;20033;-75
2022/07/23 02:19:22;;;;;;;2.00;0.65;;;13.50;99.90;;;;;;5058387;28;20084;-75
2022/07/23 02:21:48;;;;;;;1.23;0.60;;;13.50;99.90;;;;;;5075069;28;20052;-75
2022/07/23 02:24:14;;;;;;;2.30;1.70;;;13.50;99.90;;;;;;5075244;28;20037;-75
2022/07/23 02:26:40;;;;;;;0.90;0.60;;;13.40;99.90;;;;;;5074942;28;20385;-75
2022/07/23 02:29:06;;;;;;;1.65;0.90;;;13.40;99.90;;;;;;5074939;28;20041;-75
2022/07/23 02:31:31;;;;;;;1.50;0.70;;;13.40;99.90;;;;;;5074900;28;20040;-75
2022/07/23 02:33:57;;;;;;;1.23;0.90;;;13.30;99.90;;;;;;5058144;28;20409;-75
2022/07/23 02:36:23;;;;;;;2.58;1.30;;;13.30;99.90;;;;;;5074788;28;20041;-75
2022/07/23 02:38:48;;;;;;;1.42;0.70;;;13.30;99.90;;;;;;5074746;28;20042;-75
2022/07/23 02:41:14;;;;;;;1.15;0.43;;;13.20;99.90;;;;;;5074777;28;20128;-75
2022/07/23 02:43:39;;;;;;;1.70;0.93;;;13.20;99.90;;;;;;5074575;28;20036;-75
2022/07/23 02:46:05;;;;;;;1.75;1.00;;;13.10;99.90;;;;;;5074928;28;20051;-75
2022/07/23 02:48:31;;;;;;;1.65;1.10;;;13.10;99.90;;;;;;5074848;28;20493;-74
2022/07/23 02:50:56;;;;;;;2.67;1.13;;;13.00;99.90;;;;;;5074662;28;20515;-75
2022/07/23 02:53:25;;;;;;;2.55;1.42;;;13.00;99.90;;;;;;5074432;28;20576;-75
2022/07/23 02:55:51;;;;;;;2.78;1.30;;;13.00;99.90;;;;;;5057959;28;20033;-75
2022/07/23 02:58:16;;;;;;;1.20;1.10;;;13.00;99.90;;;;;;5057761;28;20087;-75
2022/07/23 03:00:42;;;;;;;1.20;1.10;;;13.00;99.90;;;;;;5074398;28;20037;-75
2022/07/23 03:03:08;;;;;;;1.20;0.90;;;13.00;99.90;;;;;;5057637;28;20041;-75
2022/07/23 03:05:34;;;;;;;3.30;1.15;;;12.90;99.90;;;;;;5074180;28;20040;-75
2022/07/23 03:07:59;;;;;;;1.63;1.27;;;12.90;99.90;;;;;;5073368;28;20083;-75
2022/07/23 03:10:25;;;;;;;1.98;1.60;;;12.90;99.90;;;;;;5074369;28;20083;-75
2022/07/23 03:12:51;;;;;;;2.38;1.67;;;12.90;99.90;;;;;;5074122;28;20040;-75
2022/07/23 03:15:17;;;;;;;1.73;1.38;;;12.90;99.90;;;;;;5074254;28;20404;-75
2022/07/23 03:17:43;;;;;;;3.38;1.83;;;12.90;99.90;;;;;;5074081;28;20037;-76
2022/07/23 03:20:09;;;;;;;2.72;1.60;;;12.90;99.90;;;;;;5073921;28;20041;-75
2022/07/23 03:22:35;;;;;;;2.08;1.63;;;12.80;99.90;;;;;;5073945;28;20209;-75
2022/07/23 03:25:00;;;;;;;2.58;1.67;;;12.90;99.90;;;;;;5074097;28;20043;-75
2022/07/23 03:27:29;;;;;;;2.20;1.40;;;12.80;99.90;;;;;;5073865;28;20574;-75
2022/07/23 03:29:57;;;;;;;2.70;1.80;;;12.80;99.90;;;;;;5073847;28;20047;-75
2022/07/23 03:32:23;;;;;;;3.97;1.88;;;12.80;99.90;;;;;;5057022;28;20059;-75
2022/07/23 03:34:49;;;;;;;3.45;2.10;;;12.90;99.90;;;;;;5056920;28;20458;-75
2022/07/23 03:37:16;;;;;;;3.95;1.83;;;12.90;99.90;;;;;;5073955;28;20041;-75
2022/07/23 03:39:41;;;;;;;3.88;2.10;;;12.80;99.90;;;;;;5073635;28;20068;-75
2022/07/23 03:42:07;;;;;;;4.75;2.25;;;12.80;99.90;;;;;;5073600;28;20090;-75
2022/07/23 03:44:33;;;;;;;3.47;1.80;;;12.80;99.90;;;;;;5073442;28;20043;-74
2022/07/23 03:46:59;;;;;;;3.05;1.83;;;12.80;99.90;;;;;;5056786;28;20040;-75
2022/07/23 03:49:25;;;;;;;4.28;2.00;;;12.80;99.90;;;;;;5073673;28;20386;-75
2022/07/23 03:51:50;;;;;;;3.53;2.50;;;12.80;99.90;;;;;;5073384;28;20516;-75
2022/07/23 03:54:16;;;;;;;4.40;2.88;;;12.80;99.90;;;;;;5073552;28;20513;-75
2022/07/23 03:56:42;;;;;;;5.90;2.78;;;12.80;99.90;;;;;;5073295;28;20457;-75
2022/07/23 03:59:08;;;;;;;3.65;2.75;;;12.80;99.90;;;;;;5073529;28;20094;-74
2022/07/23 04:01:34;;;;;;;4.72;2.30;;;12.70;99.90;;;;;;5074024;28;20048;-75
2022/07/23 04:04:00;;;;;;;4.68;2.58;;;12.70;99.90;;;;;;5073333;28;20036;-75
2022/07/23 04:06:26;;;;;;;2.60;2.08;;;12.70;99.90;;;;;;5073086;28;20044;-75
2022/07/23 04:08:52;;;;;;;2.97;2.03;;;12.70;99.90;;;;;;5073251;28;20052;-75
2022/07/23 04:11:17;;;;;;;4.63;2.00;;;12.70;99.90;;;;;;5073072;28;20036;-75
2022/07/23 04:13:43;;;;;;;3.65;2.22;;;12.70;99.90;;;;;;5072869;28;20509;-75
2022/07/23 04:16:09;;;;;;;3.92;2.40;;;12.70;99.90;;;;;;5056548;28;20123;-74
2022/07/23 04:18:34;;;;;;;3.65;2.00;;;12.70;99.90;;;;;;5072676;28;20068;-75
2022/07/23 04:21:00;;;;;;;1.58;1.42;;;12.70;99.90;;;;;;5072836;28;20044;-75
2022/07/23 04:23:26;;;;;;;2.15;1.13;;;12.70;99.90;;;;;;5072725;28;20044;-74
2022/07/23 04:25:51;;;;;;;4.60;1.60;;;12.60;99.90;;;;;;5072701;28;20063;-75
2022/07/23 04:28:17;;;;;;;3.50;2.40;;;12.70;99.90;;;;;;5072646;28;20106;-74
2022/07/23 04:30:42;;;;;;;1.58;1.33;;;12.60;99.90;;;;;;5072785;28;20131;-74
2022/07/23 04:33:08;;;;;;;3.97;2.33;;;12.60;99.90;;;;;;5072581;28;20492;-75
2022/07/23 04:35:34;;;;;;;5.13;2.17;;;12.70;99.90;;;;;;5072430;28;20041;-75
2022/07/23 04:37:59;;;;;;;4.80;2.78;;;12.70;99.90;;;;;;5072479;28;20074;-74
2022/07/23 04:40:26;;;;;;;5.45;3.13;;;12.80;99.90;;;;;;5073279;28;20094;-75
2022/07/23 04:42:52;;;;;;;4.10;2.90;;;12.90;99.90;;;;;;5072373;28;20041;-75
2022/07/23 04:45:17;;;;;;;5.13;2.75;;;12.90;99.90;;;;;;5072318;28;20062;-75
2022/07/23 04:47:43;;;;;;;4.88;3.47;;;12.90;99.90;;;;;;5072356;28;20036;-75
2022/07/23 04:50:09;;;;;;;5.47;3.05;;;12.90;99.90;;;;;;5072432;28;20044;-75
2022/07/23 04:52:34;;;;;;;7.20;3.47;;;12.90;99.90;;;;;;5072229;28;20406;-75
2022/07/23 04:55:00;;;;;;;5.35;3.78;;;13.00;99.90;;;;;;5055680;28;20036;-76
2022/07/23 04:57:26;;;;;;;5.07;3.20;;;13.00;99.90;;;;;;5072088;28;20489;-76
2022/07/23 04:59:51;;;;;;;5.53;3.53;;;13.10;99.90;;;;;;5072364;28;20037;-75
2022/07/23 05:02:17;;;;;;;5.90;3.40;;;13.10;99.90;;;;;;5055488;28;20131;-75
2022/07/23 05:04:43;;;;;;;8.75;3.70;;;13.20;99.90;;;;;;5072204;28;20127;-74
2022/07/23 05:07:08;;;;;;;8.25;3.70;;;13.20;99.90;;;;;;5072050;28;20544;-75
2022/07/23 05:09:34;;;;;;;7.97;4.10;;;13.30;99.90;;;;;;5071986;28;20039;-75
2022/07/23 05:12:00;;;;;;;5.22;3.50;;;13.30;99.90;;;;;;5071880;28;20044;-75
2022/07/23 05:14:25;;;;;;;10.30;4.40;;;13.40;99.90;;;;;;5071871;28;20086;-75
2022/07/23 05:16:51;;;;;;;8.23;4.35;;;13.50;99.90;;;;;;5072177;28;20040;-75
2022/07/23 05:19:16;;;;;;;9.00;4.05;;;13.50;99.90;;;;;;5071771;28;20119;-75
2022/07/23 05:21:42;;;;;;;8.20;4.40;;;13.60;99.90;;;;;;5055167;28;20046;-75
2022/07/23 05:24:08;;;;;;;9.45;4.18;;;13.60;99.90;;;;;;5071770;28;20080;-74
2022/07/23 05:26:33;;;;;;;8.20;4.30;;;13.70;99.90;;;;;;5055237;28;20071;-74
2022/07/23 05:28:59;;;;;;;7.93;4.13;;;13.70;99.90;;;;;;5071841;28;20036;-74
2022/07/23 05:31:24;;;;;;;10.25;3.80;;;13.80;99.90;;;;;;5071419;28;20029;-75
2022/07/23 05:33:50;;;;;;;7.65;3.75;;;13.90;99.90;;;;;;5071962;28;20375;-74
2022/07/23 05:36:16;;;;;;;7.03;3.85;;;13.90;99.90;;;;;;5071674;28;20416;-74
2022/07/23 05:38:41;;;;;;;5.00;3.60;;;14.00;99.90;;;;;;5071696;28;20032;-75
2022/07/23 05:41:07;;;;;;;9.18;4.70;;;14.00;99.90;;;;;;5071661;28;20166;-75
2022/07/23 05:43:32;;;;;;;7.05;3.42;;;14.10;99.90;;;;;;5071743;28;20071;-74
2022/07/23 05:45:58;;;;;;;6.75;3.63;;;14.20;99.90;;;;;;5071970;28;20097;-74
2022/07/23 05:48:24;;;;;;;7.43;3.20;;;14.30;99.90;;;;;;5071649;28;20513;-75
2022/07/23 05:50:49;;;;;;;5.75;3.60;;;14.40;99.90;;;;;;5071536;28;20051;-74
2022/07/23 05:53:15;;;;;;;7.78;3.65;;;14.40;99.90;;;;;;5071875;28;20038;-74
2022/07/23 05:55:40;;;;;;;6.05;3.72;;;14.50;99.90;;;;;;5055148;28;20455;-74
2022/07/23 05:58:06;;;;;;;7.93;3.53;;;14.60;99.90;;;;;;5071557;28;20401;-74
2022/07/23 06:00:32;;;;;;;6.68;3.42;;;14.60;99.90;;;;;;5054877;28;20086;-76
2022/07/23 06:02:57;;;;;;;5.03;3.40;;;14.70;99.90;;;;;;5071500;28;20051;-75
2022/07/23 06:05:23;;;;;;;6.38;2.83;;;14.80;99.90;;;;;;5071420;28;20047;-76
2022/07/23 06:07:49;;;;;;;5.40;2.67;;;14.80;99.90;;;;;;5055086;28;20132;-76
2022/07/23 06:10:14;;;;;;;6.28;2.67;;;14.90;99.90;;;;;;5054708;28;20488;-76
2022/07/23 06:12:40;;;;;;;7.88;2.80;;;15.00;99.90;;;;;;5071698;28;20110;-76
2022/07/23 06:15:07;;;;;;;8.65;3.17;;;15.10;99.90;;;;;;5054610;28;20052;-76
2022/07/23 06:17:32;;;;;;;9.63;2.78;;;15.10;99.90;;;;;;5071406;28;20037;-76
2022/07/23 06:19:58;;;;;;;5.80;2.63;;;15.20;99.90;;;;;;5071279;28;20052;-76
2022/07/23 06:22:24;;;;;;;6.25;2.67;;;15.30;99.90;;;;;;5071374;28;20041;-75
2022/07/23 06:24:51;;;;;;;5.32;2.20;;;15.30;99.90;;;;;;5054608;28;20036;-76
2022/07/23 06:27:17;;;;;;;5.55;2.25;;;15.40;99.90;;;;;;5054577;28;20048;-75
2022/07/23 06:29:42;;;;;;;5.80;2.13;;;15.50;99.90;;;;;;5071557;28;20045;-76
2022/07/23 06:32:08;;;;;;;6.32;1.90;;;15.60;99.90;;;;;;5054512;28;20136;-76
2022/07/23 06:34:34;;;;;;;5.90;1.75;;;15.60;99.90;;;;;;5071177;28;20401;-75
2022/07/23 06:37:00;;;;;;;6.00;2.30;;;15.70;99.90;;;;;;5071455;28;20044;-75
2022/07/23 06:39:25;;;;;;;5.18;1.70;;;15.80;99.90;;;;;;5071445;28;20460;-75
2022/07/23 06:41:51;;;;;;;4.07;1.65;;;15.80;99.90;;;;;;5071485;28;20098;-75
2022/07/23 06:44:17;;;;;;;3.58;1.15;;;15.90;99.90;;;;;;5074685;28;20037;-75
2022/07/23 06:46:43;;;;;;;4.13;1.70;;;16.00;99.90;;;;;;5075135;28;20489;-72
2022/07/23 06:49:09;;;;;;;5.72;1.30;;;16.10;99.90;;;;;;5058161;28;20073;-72
2022/07/23 06:51:34;;;;;;;3.08;1.20;;;16.20;99.90;;;;;;5074599;28;20033;-72
2022/07/23 06:54:00;;;;;;;4.45;1.02;;;16.20;99.90;;;;;;5074538;28;20086;-72
2022/07/23 06:56:26;;;;;;;4.05;1.20;;;16.30;99.90;;;;;;5074718;28;20079;-73
2022/07/23 06:58:51;;;;;;;5.53;1.30;;;16.40;99.90;;;;;;5074776;28;20044;-71
2022/07/23 07:01:17;;;;;;;3.85;0.95;;;16.40;99.90;;;;;;5074483;28;20519;-72
2022/07/23 07:03:43;;;;;;;5.75;1.10;;;16.50;99.90;;;;;;5074642;28;20055;-72
2022/07/23 07:06:09;;;;;;;4.68;1.08;;;16.60;99.90;;;;;;5074629;28;20037;-72
2022/07/23 07:08:34;;;;;;;3.72;1.55;;;16.60;99.90;;;;;;5074360;28;20489;-72
2022/07/23 07:11:00;;;;;;;3.28;1.17;;;16.70;99.90;;;;;;5074350;28;20065;-72
2022/07/23 07:13:26;;;;;;;3.65;0.98;;;16.80;99.90;;;;;;5074189;28;20549;-72
2022/07/23 07:15:51;;;;;;;2.92;0.70;;;16.80;99.90;;;;;;5074430;28;20036;-72
2022/07/23 07:18:17;;;;;;;2.33;1.10;;;16.90;99.90;;;;;;5074039;28;20117;-72
2022/07/23 07:20:42;;;;;;;2.22;0.85;;;17.00;99.90;;;;;;5074180;28;20406;-72
2022/07/23 07:23:08;;;;;;;5.55;1.13;;;17.10;99.90;;;;;;5074069;28;20044;-74
2022/07/23 07:25:34;;;;;;;3.10;0.93;;;17.10;99.90;;;;;;5073909;28;20123;-73
2022/07/23 07:27:59;;;;;;;4.85;0.77;;;17.20;99.90;;;;;;5073918;28;20090;-72
2022/07/23 07:30:25;;;;;;;2.42;0.88;;;17.30;99.90;;;;;;5073830;28;20044;-72
2022/07/23 07:32:50;;;;;;;2.20;0.60;;;17.50;99.90;;;;;;5074187;28;20127;-73
2022/07/23 07:35:16;;;;;;;1.08;0.30;;;17.50;99.90;;;;;;5073691;28;20464;-72
2022/07/23 07:37:42;;;;;;;0.77;0.30;;;17.70;99.90;;;;;;5073795;28;20390;-72
2022/07/23 07:40:08;;;;;;;2.22;0.43;;;17.80;99.90;;;;;;5073731;28;20032;-72
2022/07/23 07:42:34;;;;;;;1.02;0.30;;;17.80;99.90;;;;;;5073619;28;20068;-72
2022/07/23 07:44:59;;;;;;;3.88;0.70;;;17.80;99.90;;;;;;5073503;28;20520;-72
2022/07/23 07:47:25;;;;;;;1.42;0.40;;;17.80;99.90;;;;;;5073611;28;20041;-72
2022/07/23 07:49:50;;;;;;;2.72;0.45;;;17.70;99.90;;;;;;5073501;28;20045;-72
2022/07/23 07:52:16;;;;;;;1.63;0.50;;;17.80;99.90;;;;;;5074651;28;20036;-75
2022/07/23 07:54:42;;;;;;;5.50;0.40;;;17.90;99.90;;;;;;5073606;28;20074;-74
2022/07/23 07:57:08;;;;;;;3.03;0.45;;;17.90;99.90;;;;;;5056687;28;20551;-73
2022/07/23 07:59:34;;;;;;;1.58;0.38;;;17.90;99.90;;;;;;5073232;28;20123;-73
2022/07/23 08:01:59;;;;;;;2.35;0.35;;;17.90;99.90;;;;;;5073554;28;20048;-74
2022/07/23 08:04:25;;;;;;;3.35;0.50;;;18.10;99.90;;;;;;5073266;28;20079;-74
2022/07/23 08:06:51;;;;;;;2.72;0.38;;;18.20;99.90;;;;;;5073216;28;20032;-75
2022/07/23 08:09:17;;;;;;;3.50;0.30;;;18.30;99.90;;;;;;5073408;28;20133;-74
2022/07/23 08:11:42;;;;;;;1.10;0.25;;;18.30;99.90;;;;;;5073152;28;20106;-74
2022/07/23 08:14:09;;;;;;;2.67;0.30;;;18.40;99.90;;;;;;5073027;28;20041;-73
2022/07/23 08:16:34;;;;;;;1.25;0.52;;;18.40;99.90;;;;;;5072975;28;20047;-73
2022/07/23 08:19:00;;;;;;;1.05;0.22;;;18.40;99.90;;;;;;5072860;28;20116;-74
2022/07/23 08:21:26;;;;;;;3.30;0.47;;;18.30;99.90;;;;;;5072947;28;20040;-74
2022/07/23 08:23:51;;;;;;;0.88;0.40;;;18.20;99.90;;;;;;5072815;28;20095;-72
2022/07/23 08:26:17;;;;;;;2.40;0.38;;;18.20;99.90;;;;;;5056330;28;20097;-73
2022/07/23 08:28:42;;;;;;;2.00;0.45;;;18.30;99.90;;;;;;5056128;28;20037;-73
2022/07/23 08:31:08;;;;;;;2.35;0.50;;;18.50;99.90;;;;;;5072803;28;20129;-74
2022/07/23 08:33:33;;;;;;;2.80;0.38;;;18.90;99.90;;;;;;5072616;28;20075;-73
2022/07/23 08:36:02;;;;;;;5.45;0.68;;;19.10;99.90;;;;;;5072582;28;20063;-73
2022/07/23 08:38:28;;;;;;;1.67;0.40;;;19.10;99.90;;;;;;5072554;28;20045;-73
2022/07/23 08:40:57;;;;;;;1.13;0.30;;;19.00;99.90;;;;;;5072801;28;20044;-74
2022/07/23 08:43:25;;;;;;;2.00;0.55;;;18.90;99.90;;;;;;5072441;28;20068;-72
2022/07/23 08:45:53;;;;;;;1.63;0.30;;;18.90;99.90;;;;;;5072384;28;20540;-73
2022/07/23 08:48:24;;;;;;;2.42;0.40;;;19.00;99.90;;;;;;5072272;28;20044;-73
2022/07/23 08:50:52;;;;;;;1.33;0.30;;;19.20;99.90;;;;;;5072215;28;20036;-73
2022/07/23 08:53:19;;;;;;;2.10;0.30;;;19.40;99.90;;;;;;5072500;28;20508;-73
2022/07/23 08:55:47;;;;;;;2.92;0.32;;;19.60;99.90;;;;;;5072260;28;20405;-74
2022/07/23 08:58:13;;;;;;;1.30;0.20;;;19.90;99.90;;;;;;5072239;28;20032;-73
2022/07/23 09:00:39;;;;;;;1.75;0.38;;;20.10;99.90;;;;;;5072151;28;20047;-74
2022/07/23 09:03:05;;;;;;;3.75;0.77;;;20.10;99.90;;;;;;5072444;28;20052;-74
2022/07/23 09:05:31;;;;;;;1.58;0.30;;;20.20;99.90;;;;;;5071360;28;20036;-74
2022/07/23 09:08:10;;;;;;;6.85;1.73;;;20.30;99.90;;;;;;5072087;28;20119;-74
2022/07/23 09:10:58;;;;;;;15.63;4.35;;;20.30;99.90;;;;;;5072009;28;20086;-74
2022/07/23 09:13:43;;;;;;;4.38;1.00;;;20.30;99.90;;;;;;5071960;28;20040;-76
2022/07/23 09:16:19;;;;;;;2.92;0.40;;;20.20;99.90;;;;;;5055616;28;20127;-75
2022/07/23 09:19:01;;;;;;;1.15;0.30;;;20.40;99.90;;;;;;5071898;28;20036;-74
2022/07/23 09:21:35;;;;;;;4.13;0.30;;;20.40;99.90;;;;;;5072023;28;20048;-74
2022/07/23 09:24:06;;;;;;;3.92;0.30;;;20.40;99.90;;;;;;5072144;28;20062;-74
2022/07/23 09:26:43;;;;;;;2.63;0.47;;;20.30;99.90;;;;;;5071947;28;20040;-74
2022/07/23 09:29:16;;;;;;;1.33;0.30;;;20.30;99.90;;;;;;5071864;28;20509;-74
2022/07/23 09:31:50;;;;;;;1.75;0.63;;;20.50;99.90;;;;;;5071944;28;20032;-74
2022/07/23 09:34:32;;;;;;;1.17;0.40;;;20.80;99.90;;;;;;5071727;28;20040;-74
2022/07/23 09:37:10;;;;;;;1.58;0.40;;;21.30;99.90;;;;;;5071812;28;20045;-74
2022/07/23 09:39:36;;;;;;;1.73;0.40;;;21.60;99.20;;;;;;5071778;28;20557;-75
2022/07/23 09:42:23;;;;;;;1.67;0.50;;;21.70;98.20;;;;;;5071991;28;20149;-75
2022/07/23 09:44:51;;;;;;;0.60;0.22;;;21.70;95.00;;;;;;5071551;28;20041;-74
2022/07/23 09:47:18;;;;;;;3.55;0.60;;;21.60;96.60;;;;;;5055180;28;20123;-74
2022/07/23 09:50:08;;;;;;;1.92;0.32;;;21.60;97.40;;;;;;5071918;28;20421;-74
2022/07/23 09:52:36;;;;;;;1.88;0.50;;;21.50;97.80;;;;;;5071653;28;20182;-74
2022/07/23 09:55:06;;;;;;;1.77;0.32;;;21.60;99.90;;;;;;5071389;28;20382;-72
2022/07/23 09:57:35;;;;;;;2.67;0.40;;;21.70;96.40;;;;;;5071630;28;20037;-73
2022/07/23 10:00:05;;;;;;;1.38;0.40;;;21.70;96.70;;;;;;5071793;28;20046;-73
2022/07/23 10:02:33;;;;;;;3.00;0.40;;;21.70;97.50;;;;;;5071591;28;20076;-74
2022/07/23 10:05:00;;;;;;;3.13;0.40;;;21.80;99.20;;;;;;5071426;28;20524;-73
2022/07/23 10:07:29;;;;;;;1.48;0.50;;;22.00;96.70;;;;;;5071484;28;20056;-73
2022/07/23 10:09:58;;;;;;;3.05;0.50;;;22.10;97.00;;;;;;5071457;28;20119;-74
2022/07/23 10:15:06;;;;;;;1.70;0.40;;;22.10;94.40;;;;;;5071413;28;20045;-73
2022/07/23 10:17:33;;;;;;;1.60;0.32;;;22.00;96.20;;;;;;5074226;28;20783;-74
2022/07/23 10:19:58;;;;;;;1.70;0.38;;;22.10;94.70;;;;;;5075189;28;20041;-73
2022/07/23 10:22:37;;;;;;;2.97;0.50;;;22.20;94.80;;;;;;5058494;28;20150;-73
2022/07/23 10:25:11;;;;;;;2.05;0.50;;;22.20;92.80;;;;;;5075095;28;20401;-74
2022/07/23 10:28:11;;;;;;;1.48;0.40;;;22.10;95.10;;;;;;5058467;28;20041;-73
2022/07/23 10:31:04;;;;;;;1.65;0.43;;;22.10;95.70;;;;;;5075228;28;20079;-73
2022/07/23 10:34:03;;;;;;;2.47;0.43;;;22.20;97.30;;;;;;5058246;28;20409;-72
2022/07/23 10:36:44;;;;;;;1.83;0.43;;;22.30;97.60;;;;;;5075014;28;20040;-73
2022/07/23 10:39:14;;;;;;;4.22;0.55;;;22.80;95.30;;;;;;5076419;28;20040;-73
2022/07/23 10:41:40;;;;;;;1.90;0.40;;;22.70;92.40;;;;;;5074886;28;20053;-73
2022/07/23 10:44:11;;;;;;;3.65;0.85;;;22.80;92.40;;;;;;5074746;28;20128;-72
2022/07/23 10:49:45;;;;;;;2.13;0.50;;;22.80;93.20;;;;;;5074704;28;20040;-72
2022/07/23 10:52:14;;;;;;;1.23;0.60;;;22.70;91.80;;;;;;5074645;28;20037;-73
2022/07/23 10:54:44;;;;;;;2.50;0.60;;;22.60;91.80;;;;;;5074549;28;20133;-72
2022/07/23 10:57:11;;;;;;;1.48;0.50;;;22.50;93.40;;;;;;5074539;28;20044;-73
2022/07/23 11:02:32;;;;;;;2.35;0.60;;;22.50;94.80;;;;;;5074699;28;20063;-73
2022/07/23 11:05:07;;;;;;;4.65;0.65;;;22.50;95.90;;;;;;5057904;28;20051;-72
2022/07/23 11:07:34;;;;;;;5.30;0.90;;;22.50;93.10;;;;;;5074438;28;20080;-73
2022/07/23 11:10:00;;;;;;;3.28;1.23;;;22.50;95.70;;;;;;5074345;28;20078;-73
2022/07/23 11:12:28;;;;;;;2.17;0.68;;;22.50;94.90;;;;;;5074220;28;20083;-73
2022/07/23 11:15:01;;;;;;;2.92;0.70;;;22.60;93.60;;;;;;5074133;28;20044;-72
2022/07/23 11:17:27;;;;;;;3.83;0.80;;;22.80;94.70;;;;;;5074241;28;20105;-73
2022/07/23 11:20:17;;;;;;;2.42;0.82;;;23.10;95.80;;;;;;5074156;28;20409;-72
2022/07/23 11:22:42;;;;;;;2.92;0.70;;;23.40;92.50;;;;;;5074131;28;20501;-73
2022/07/23 11:25:09;;;;;;;4.47;0.88;;;23.60;92.50;;;;;;5074279;28;20078;-72
2022/07/23 11:27:39;;;;;;;3.03;0.70;;;23.90;91.60;;;;;;5073809;28;20045;-72
2022/07/23 11:30:06;;;;;;;2.97;0.77;;;24.10;90.60;;;;;;5073769;28;20040;-72
2022/07/23 11:32:37;;;;;;;1.35;0.57;;;24.30;90.20;;;;;;5073864;28;20044;-73
2022/07/23 11:35:22;;;;;;;1.65;0.70;;;24.50;88.00;;;;;;5075048;28;20040;-72
2022/07/23 11:37:48;;;;;;;3.25;0.90;;;24.60;88.10;;;;;;5073818;28;20043;-74
2022/07/23 11:40:16;;;;;;;2.63;0.88;;;24.30;83.00;;;;;;5073711;28;20040;-74
2022/07/23 11:43:03;;;;;;;3.22;0.82;;;24.10;84.40;;;;;;5073687;28;20051;-72
2022/07/23 11:45:41;;;;;;;2.55;0.77;;;23.90;81.00;;;;;;5073550;28;20051;-73
2022/07/23 11:48:09;;;;;;;3.17;0.98;;;23.70;85.60;;;;;;5073614;28;20040;-73
2022/07/23 11:50:35;;;;;;;3.85;0.90;;;23.60;90.30;;;;;;5073742;28;20041;-73
2022/07/23 11:53:02;;;;;;;3.00;0.90;;;23.60;92.70;;;;;;5073769;28;20560;-74
2022/07/23 11:55:28;;;;;;;6.75;0.90;;;23.50;90.90;;;;;;5073262;28;20040;-72
2022/07/23 11:57:54;;;;;;;2.03;0.82;;;23.50;90.50;;;;;;5073386;28;20040;-72
2022/07/23 12:00:23;;;;;;;2.65;0.88;;;23.60;90.10;;;;;;5073348;28;20445;-73
2022/07/23 12:02:52;;;;;;;2.63;0.90;;;23.70;90.90;;;;;;5073602;28;20049;-73
2022/07/23 12:05:26;;;;;;;2.58;1.08;;;24.00;90.30;;;;;;5056499;28;20127;-72
2022/07/23 12:07:54;;;;;;;3.13;0.82;;;24.10;85.50;;;;;;5073258;28;20075;-72
2022/07/23 12:10:42;;;;;;;4.68;1.10;;;24.10;84.60;;;;;;5073252;28;20124;-72
2022/07/23 12:13:19;;;;;;;2.65;1.10;;;24.30;85.30;;;;;;5056538;28;20014;-74
2022/07/23 12:15:47;;;;;;;3.10;0.80;;;24.50;88.50;;;;;;5056340;28;20048;-74
2022/07/23 12:18:20;;;;;;;2.70;1.13;;;24.80;84.70;;;;;;5072802;28;20044;-74
2022/07/23 12:20:48;;;;;;;2.00;0.90;;;25.00;80.20;;;;;;5056274;28;20036;-74
2022/07/23 12:23:17;;;;;;;3.20;0.90;;;24.90;81.30;;;;;;5072829;28;20040;-74
2022/07/23 12:25:45;;;;;;;2.10;1.00;;;24.80;78.40;;;;;;5072745;28;20041;-74
2022/07/23 12:28:13;;;;;;;3.45;1.20;;;24.60;78.40;;;;;;5072792;28;20045;-74
2022/07/23 12:30:48;;;;;;;3.83;1.48;;;24.50;79.50;;;;;;5072551;28;20089;-74
2022/07/23 12:33:34;;;;;;;2.53;1.10;;;24.70;76.70;;;;;;5072975;28;20032;-75
2022/07/23 12:36:09;;;;;;;2.70;0.88;;;24.90;80.00;;;;;;5072598;28;20043;-74
2022/07/23 12:38:52;;;;;;;2.25;0.80;;;24.80;78.30;;;;;;5072595;28;20032;-74
2022/07/23 12:41:18;;;;;;;2.35;0.82;;;24.60;77.80;;;;;;5071633;28;20040;-74
2022/07/23 12:43:45;;;;;;;3.03;1.20;;;24.40;78.70;;;;;;5072329;28;20059;-74
2022/07/23 12:46:16;;;;;;;2.97;1.05;;;24.20;83.00;;;;;;5072710;28;20052;-75
2022/07/23 12:48:51;;;;;;;3.88;1.20;;;24.10;83.50;;;;;;5072399;28;20047;-74
2022/07/23 12:51:31;;;;;;;1.95;1.10;;;24.00;84.90;;;;;;5072277;28;20127;-74
2022/07/23 12:53:58;;;;;;;2.15;0.80;;;24.00;88.00;;;;;;5072260;28;20052;-74
2022/07/23 12:56:36;;;;;;;4.00;1.17;;;24.00;89.80;;;;;;5072263;28;20036;-74